createdAt,value
2022-11-14T00:00:09.625Z,6.89
2022-11-14T00:01:09.845Z,6.93
2022-11-14T00:02:10.040Z,6.96
2022-11-14T00:03:11.032Z,6.99
2022-11-14T00:04:10.474Z,7.00
2022-11-14T00:05:10.694Z,7.04
2022-11-14T00:06:09.878Z,7.05
2022-11-14T00:07:10.221Z,7.08
2022-11-14T00:08:10.304Z,7.12
2022-11-14T00:09:10.808Z,7.11
2022-11-14T00:10:09.704Z,7.12
2022-11-14T00:11:09.888Z,7.12
2022-11-14T00:12:10.088Z,7.12
2022-11-14T00:13:10.320Z,7.11
2022-11-14T00:14:09.509Z,7.14
2022-11-14T00:15:10.650Z,7.12
2022-11-14T00:16:09.903Z,7.11
2022-11-14T00:17:11.156Z,7.16
2022-11-14T00:18:10.309Z,7.15
2022-11-14T00:19:09.488Z,7.14
2022-11-14T00:20:09.698Z,7.14
2022-11-14T00:21:09.473Z,7.14
2022-11-14T00:22:09.661Z,7.12
2022-11-14T00:23:09.883Z,7.12
2022-11-14T00:24:11.017Z,7.08
2022-11-14T00:25:09.263Z,7.12
2022-11-14T00:26:09.478Z,7.11
2022-11-14T00:27:09.703Z,7.09
2022-11-14T00:28:09.944Z,7.08
2022-11-14T00:29:10.118Z,7.05
2022-11-14T00:30:09.264Z,7.07
2022-11-14T00:31:09.469Z,7.08
2022-11-14T00:32:09.951Z,7.08
2022-11-14T00:33:19.825Z,7.05
2022-11-14T00:34:11.087Z,7.04
2022-11-14T00:35:09.258Z,7.07
2022-11-14T00:36:09.459Z,7.05
2022-11-14T00:37:09.649Z,7.04
2022-11-14T00:38:12.543Z,7.00
2022-11-14T00:39:10.072Z,7.00
2022-11-14T00:40:09.227Z,6.91
2022-11-14T00:41:09.440Z,6.91
2022-11-14T00:42:09.617Z,6.89
2022-11-14T00:43:09.828Z,6.79
2022-11-14T00:44:13.227Z,6.79
2022-11-14T00:45:09.208Z,6.75
2022-11-14T00:46:09.389Z,6.75
2022-11-14T00:47:09.636Z,6.73
2022-11-14T00:48:09.842Z,6.72
2022-11-14T00:49:09.023Z,6.73
2022-11-14T00:50:09.303Z,6.71
2022-11-14T00:51:09.463Z,6.65
2022-11-14T00:52:09.692Z,6.69
2022-11-14T00:53:08.861Z,6.68
2022-11-14T00:54:10.127Z,6.71
2022-11-14T00:55:10.414Z,6.73
2022-11-14T00:56:09.491Z,6.75
2022-11-14T00:57:09.723Z,6.76
2022-11-14T00:58:08.877Z,6.76
2022-11-14T00:59:09.057Z,6.78
2022-11-14T01:00:09.272Z,6.78
2022-11-14T01:01:10.014Z,6.73
2022-11-14T01:02:09.673Z,6.73
2022-11-14T01:03:08.833Z,6.76
2022-11-14T01:04:09.058Z,6.75
2022-11-14T01:05:09.273Z,6.73
2022-11-14T01:06:09.484Z,6.72
2022-11-14T01:07:12.243Z,6.69
2022-11-14T01:08:08.882Z,6.68
2022-11-14T01:09:09.172Z,6.65
2022-11-14T01:10:09.301Z,6.65
2022-11-14T01:11:09.550Z,6.65
2022-11-14T01:12:10.777Z,6.64
2022-11-14T01:13:10.562Z,6.63
2022-11-14T01:14:09.148Z,6.63
2022-11-14T01:15:09.362Z,6.63
2022-11-14T01:16:09.572Z,6.61
2022-11-14T01:17:08.742Z,6.58
2022-11-14T01:18:08.943Z,6.57
2022-11-14T01:19:09.242Z,6.54
2022-11-14T01:20:09.397Z,6.54
2022-11-14T01:21:08.552Z,6.50
2022-11-14T01:22:08.768Z,6.46
2022-11-14T01:23:08.998Z,6.48
2022-11-14T01:24:09.202Z,6.45
2022-11-14T01:25:09.463Z,6.43
2022-11-14T01:26:08.593Z,6.43
2022-11-14T01:27:08.793Z,6.46
2022-11-14T01:28:08.737Z,6.45
2022-11-14T01:29:08.922Z,6.46
2022-11-14T01:30:09.129Z,6.46
2022-11-14T01:31:09.352Z,6.46
2022-11-14T01:32:08.513Z,6.45
2022-11-14T01:33:08.705Z,6.43
2022-11-14T01:34:09.972Z,6.43
2022-11-14T01:35:10.187Z,6.42
2022-11-14T01:36:08.319Z,6.40
2022-11-14T01:37:09.622Z,6.40
2022-11-14T01:38:08.773Z,6.39
2022-11-14T01:39:09.001Z,6.36
2022-11-14T01:40:09.202Z,6.35
2022-11-14T01:41:09.432Z,6.33
2022-11-14T01:42:08.632Z,6.35
2022-11-14T01:43:09.922Z,6.32
2022-11-14T01:44:09.088Z,6.32
2022-11-14T01:45:10.353Z,6.32
2022-11-14T01:46:09.529Z,6.32
2022-11-14T01:47:08.704Z,6.33
2022-11-14T01:48:08.943Z,6.33
2022-11-14T01:49:10.263Z,6.35
2022-11-14T01:50:08.343Z,6.35
2022-11-14T01:51:09.762Z,6.30
2022-11-14T01:52:09.994Z,6.25
2022-11-14T01:53:08.148Z,6.20
2022-11-14T01:54:09.407Z,6.17
2022-11-14T01:55:10.753Z,6.13
2022-11-14T01:56:08.802Z,6.11
2022-11-14T01:57:11.133Z,6.11
2022-11-14T01:58:10.249Z,6.13
2022-11-14T01:59:11.502Z,6.10
2022-11-14T02:00:09.733Z,6.08
2022-11-14T02:01:10.125Z,6.08
2022-11-14T02:02:09.134Z,6.06
2022-11-14T02:03:10.418Z,6.05
2022-11-14T02:04:12.847Z,6.06
2022-11-14T02:05:09.782Z,6.02
2022-11-14T02:06:09.017Z,6.02
2022-11-14T02:07:09.335Z,6.05
2022-11-14T02:08:08.432Z,6.02
2022-11-14T02:09:09.683Z,6.05
2022-11-14T02:10:08.874Z,6.05
2022-11-14T02:11:08.073Z,6.05
2022-11-14T02:12:08.282Z,6.03
2022-11-14T02:13:08.562Z,6.06
2022-11-14T02:14:08.753Z,6.10
2022-11-14T02:15:08.977Z,6.11
2022-11-14T02:16:09.219Z,6.11
2022-11-14T02:17:28.479Z,6.11
2022-11-14T02:18:15.533Z,6.14
2022-11-14T02:19:07.838Z,6.16
2022-11-14T02:20:09.093Z,6.14
2022-11-14T02:21:09.319Z,6.16
2022-11-14T02:22:08.483Z,6.16
2022-11-14T02:23:12.932Z,6.11
2022-11-14T02:24:08.948Z,6.11
2022-11-14T02:25:08.137Z,6.10
2022-11-14T02:26:09.414Z,6.06
2022-11-14T02:27:08.583Z,6.06
2022-11-14T02:28:07.770Z,6.08
2022-11-14T02:29:10.137Z,6.05
2022-11-14T02:30:08.234Z,6.05
2022-11-14T02:31:10.522Z,6.06
2022-11-14T02:32:10.636Z,6.06
2022-11-14T02:33:11.315Z,6.03
2022-11-14T02:34:09.143Z,6.02
2022-11-14T02:35:09.816Z,6.05
2022-11-14T02:36:08.584Z,6.03
2022-11-14T02:37:09.756Z,6.05
2022-11-14T02:38:10.092Z,6.08
2022-11-14T02:39:09.264Z,6.06
2022-11-14T02:40:08.448Z,6.03
2022-11-14T02:41:09.762Z,6.05
2022-11-14T02:42:07.863Z,6.05
2022-11-14T02:43:10.173Z,6.10
2022-11-14T02:44:10.362Z,6.11
2022-11-14T02:45:09.563Z,6.11
2022-11-14T02:46:08.767Z,6.13
2022-11-14T02:47:07.953Z,6.10
2022-11-14T02:48:09.183Z,6.08
2022-11-14T02:49:09.437Z,6.10
2022-11-14T02:50:08.652Z,6.05
2022-11-14T02:51:08.887Z,6.03
2022-11-14T02:52:09.203Z,6.02
2022-11-14T02:53:09.382Z,5.98
2022-11-14T02:54:09.623Z,5.99
2022-11-14T02:55:09.867Z,6.02
2022-11-14T02:56:09.074Z,6.01
2022-11-14T02:57:12.328Z,6.01
2022-11-14T02:58:08.520Z,5.98
2022-11-14T02:59:07.725Z,5.98
2022-11-14T03:00:14.661Z,5.95
2022-11-14T03:01:20.255Z,5.95
2022-11-14T03:02:09.659Z,5.92
2022-11-14T03:03:08.016Z,5.90
2022-11-14T03:04:08.112Z,5.92
2022-11-14T03:05:07.350Z,5.93
2022-11-14T03:06:08.603Z,5.90
2022-11-14T03:07:07.937Z,5.92
2022-11-14T03:08:08.063Z,5.93
2022-11-14T03:09:08.329Z,5.90
2022-11-14T03:10:09.623Z,5.90
2022-11-14T03:11:07.778Z,5.90
2022-11-14T03:12:08.008Z,5.88
2022-11-14T03:13:09.312Z,5.87
2022-11-14T03:14:07.413Z,5.87
2022-11-14T03:15:08.708Z,5.87
2022-11-14T03:16:07.892Z,5.83
2022-11-14T03:17:09.177Z,5.90
2022-11-14T03:18:08.430Z,5.83
2022-11-14T03:19:09.108Z,5.84
2022-11-14T03:20:08.913Z,5.84
2022-11-14T03:21:07.062Z,5.83
2022-11-14T03:22:09.400Z,5.84
2022-11-14T03:23:08.599Z,5.87
2022-11-14T03:24:07.777Z,5.84
2022-11-14T03:25:10.237Z,5.87
2022-11-14T03:26:09.324Z,5.87
2022-11-14T03:27:07.486Z,5.92
2022-11-14T03:28:07.797Z,5.92
2022-11-14T03:29:09.047Z,5.90
2022-11-14T03:30:10.312Z,5.93
2022-11-14T03:31:09.468Z,5.93
2022-11-14T03:32:08.656Z,5.96
2022-11-14T03:33:08.867Z,5.98
2022-11-14T03:34:09.093Z,5.98
2022-11-14T03:35:08.282Z,6.01
2022-11-14T03:36:08.610Z,5.99
2022-11-14T03:37:07.768Z,5.99
2022-11-14T03:38:10.078Z,5.96
2022-11-14T03:39:11.293Z,5.93
2022-11-14T03:40:09.508Z,5.92
2022-11-14T03:41:09.798Z,5.88
2022-11-14T03:42:10.004Z,5.85
2022-11-14T03:43:07.132Z,5.84
2022-11-14T03:44:08.428Z,5.83
2022-11-14T03:45:08.690Z,5.81
2022-11-14T03:46:10.719Z,5.83
2022-11-14T03:47:10.198Z,5.80
2022-11-14T03:48:08.388Z,5.80
2022-11-14T03:49:09.359Z,5.75
2022-11-14T03:50:07.516Z,5.75
2022-11-14T03:51:08.789Z,5.75
2022-11-14T03:52:09.074Z,5.74
2022-11-14T03:53:08.228Z,5.74
2022-11-14T03:54:08.459Z,5.69
2022-11-14T03:55:08.730Z,5.66
2022-11-14T03:56:07.930Z,5.65
2022-11-14T03:57:08.168Z,5.63
2022-11-14T03:58:09.628Z,5.60
2022-11-14T03:59:08.638Z,5.60
2022-11-14T04:00:11.988Z,5.60
2022-11-14T04:01:08.141Z,5.58
2022-11-14T04:02:07.248Z,5.58
2022-11-14T04:03:08.545Z,5.55
2022-11-14T04:04:08.812Z,5.49
2022-11-14T04:05:10.038Z,5.45
2022-11-14T04:06:08.204Z,5.40
2022-11-14T04:07:06.388Z,5.38
2022-11-14T04:08:08.697Z,5.30
2022-11-14T04:09:08.968Z,5.30
2022-11-14T04:10:07.129Z,5.32
2022-11-14T04:11:08.408Z,5.27
2022-11-14T04:12:10.031Z,5.24
2022-11-14T04:13:09.918Z,5.24
2022-11-14T04:14:10.338Z,5.24
2022-11-14T04:15:09.439Z,5.24
2022-11-14T04:16:08.601Z,5.26
2022-11-14T04:17:09.368Z,5.23
2022-11-14T04:18:08.558Z,5.24
2022-11-14T04:19:08.808Z,5.27
2022-11-14T04:20:09.168Z,5.26
2022-11-14T04:21:08.248Z,5.29
2022-11-14T04:22:08.501Z,5.29
2022-11-14T04:23:08.769Z,5.32
2022-11-14T04:24:11.211Z,5.35
2022-11-14T04:25:09.262Z,5.35
2022-11-14T04:26:06.768Z,5.32
2022-11-14T04:27:08.738Z,5.33
2022-11-14T04:28:08.988Z,5.33
2022-11-14T04:29:06.098Z,5.32
2022-11-14T04:30:09.251Z,5.33
2022-11-14T04:31:06.803Z,5.33
2022-11-14T04:32:09.758Z,5.33
2022-11-14T04:33:08.968Z,5.35
2022-11-14T04:34:06.080Z,5.35
2022-11-14T04:35:09.504Z,5.37
2022-11-14T04:36:08.658Z,5.35
2022-11-14T04:37:06.828Z,5.33
2022-11-14T04:38:08.120Z,5.32
2022-11-14T04:39:06.268Z,5.33
2022-11-14T04:40:08.594Z,5.32
2022-11-14T04:41:08.868Z,5.30
2022-11-14T04:42:08.023Z,5.30
2022-11-14T04:43:09.309Z,5.30
2022-11-14T04:44:09.529Z,5.27
2022-11-14T04:45:07.796Z,5.26
2022-11-14T04:46:10.057Z,5.23
2022-11-14T04:47:06.078Z,5.24
2022-11-14T04:48:08.428Z,5.22
2022-11-14T04:49:07.613Z,5.20
2022-11-14T04:50:05.855Z,5.19
2022-11-14T04:51:08.108Z,5.19
2022-11-14T04:52:08.402Z,5.20
2022-11-14T04:53:08.611Z,5.20
2022-11-14T04:54:05.739Z,5.19
2022-11-14T04:55:07.037Z,5.19
2022-11-14T04:56:06.228Z,5.19
2022-11-14T04:57:06.489Z,5.19
2022-11-14T04:58:06.292Z,5.15
2022-11-14T04:59:08.043Z,5.14
2022-11-14T05:00:07.258Z,5.20
2022-11-14T05:01:06.535Z,5.19
2022-11-14T05:02:07.763Z,5.20
2022-11-14T05:03:05.943Z,5.20
2022-11-14T05:04:07.078Z,5.17
2022-11-14T05:05:06.439Z,5.19
2022-11-14T05:06:07.718Z,5.20
2022-11-14T05:07:06.062Z,5.19
2022-11-14T05:08:06.153Z,5.20
2022-11-14T05:09:08.518Z,5.19
2022-11-14T05:10:07.683Z,5.15
2022-11-14T05:11:05.848Z,5.14
2022-11-14T05:12:07.155Z,5.15
2022-11-14T05:13:06.359Z,5.15
2022-11-14T05:14:06.582Z,5.20
2022-11-14T05:15:06.885Z,5.19
2022-11-14T05:16:06.048Z,5.19
2022-11-14T05:17:06.313Z,5.17
2022-11-14T05:18:05.525Z,5.19
2022-11-14T05:19:07.866Z,5.14
2022-11-14T05:20:06.058Z,5.17
2022-11-14T05:21:07.018Z,5.17
2022-11-14T05:22:06.589Z,5.19
2022-11-14T05:23:05.813Z,5.17
2022-11-14T05:24:06.053Z,5.22
2022-11-14T05:25:06.305Z,5.23
2022-11-14T05:26:05.534Z,5.20
2022-11-14T05:27:06.839Z,5.22
2022-11-14T05:28:06.044Z,5.22
2022-11-14T05:29:06.300Z,5.19
2022-11-14T05:30:05.514Z,5.19
2022-11-14T05:31:05.774Z,5.15
2022-11-14T05:32:06.048Z,5.15
2022-11-14T05:33:07.293Z,5.14
2022-11-14T05:34:05.507Z,5.09
2022-11-14T05:35:05.798Z,5.09
2022-11-14T05:36:06.023Z,5.11
2022-11-14T05:37:07.366Z,5.08
2022-11-14T05:38:10.019Z,5.08
2022-11-14T05:39:05.834Z,5.08
2022-11-14T05:40:07.050Z,5.06
2022-11-14T05:41:05.318Z,5.06
2022-11-14T05:42:05.579Z,5.02
2022-11-14T05:43:05.859Z,5.04
2022-11-14T05:44:07.788Z,5.05
2022-11-14T05:45:05.343Z,5.04
2022-11-14T05:46:05.612Z,5.01
2022-11-14T05:47:05.879Z,5.02
2022-11-14T05:48:05.073Z,4.99
2022-11-14T05:49:05.354Z,5.01
2022-11-14T05:50:07.712Z,4.97
2022-11-14T05:51:05.873Z,4.96
2022-11-14T05:52:05.104Z,4.97
2022-11-14T05:53:12.629Z,4.97
2022-11-14T05:54:05.618Z,4.97
2022-11-14T05:55:05.914Z,4.94
2022-11-14T05:56:08.949Z,4.93
2022-11-14T05:57:05.430Z,4.94
2022-11-14T05:58:06.699Z,4.93
2022-11-14T05:59:06.207Z,4.94
2022-11-14T06:00:06.468Z,4.90
2022-11-14T06:01:06.547Z,4.91
2022-11-14T06:02:07.394Z,4.91
2022-11-14T06:03:06.183Z,4.93
2022-11-14T06:04:06.361Z,4.91
2022-11-14T06:05:06.581Z,4.90
2022-11-14T06:06:04.819Z,4.90
2022-11-14T06:07:05.213Z,4.90
2022-11-14T06:08:07.669Z,4.88
2022-11-14T06:09:05.718Z,4.91
2022-11-14T06:10:04.889Z,4.96
2022-11-14T06:11:05.174Z,4.96
2022-11-14T06:12:05.445Z,4.94
2022-11-14T06:13:04.712Z,4.97
2022-11-14T06:14:10.579Z,4.96
2022-11-14T06:15:05.259Z,4.96
2022-11-14T06:16:06.109Z,4.99
2022-11-14T06:17:05.104Z,5.01
2022-11-14T06:18:05.059Z,5.02
2022-11-14T06:19:06.120Z,5.04
2022-11-14T06:20:06.318Z,5.05
2022-11-14T06:21:07.993Z,5.06
2022-11-14T06:22:06.203Z,5.06
2022-11-14T06:23:05.429Z,5.08
2022-11-14T06:24:05.706Z,5.06
2022-11-14T06:25:06.009Z,5.06
2022-11-14T06:26:06.863Z,5.09
2022-11-14T06:27:06.508Z,5.12
2022-11-14T06:28:04.720Z,5.12
2022-11-14T06:29:05.035Z,5.12
2022-11-14T06:30:05.268Z,5.14
2022-11-14T06:31:06.630Z,5.15
2022-11-14T06:32:06.541Z,5.17
2022-11-14T06:33:05.097Z,5.22
2022-11-14T06:34:05.419Z,5.22
2022-11-14T06:35:04.619Z,5.20
2022-11-14T06:36:04.904Z,5.20
2022-11-14T06:37:05.172Z,5.22
2022-11-14T06:38:06.768Z,5.22
2022-11-14T06:39:04.683Z,5.23
2022-11-14T06:40:04.925Z,5.22
2022-11-14T06:41:05.199Z,5.24
2022-11-14T06:42:04.423Z,5.23
2022-11-14T06:43:04.673Z,5.22
2022-11-14T06:44:06.853Z,5.22
2022-11-14T06:45:05.222Z,5.26
2022-11-14T06:46:04.438Z,5.29
2022-11-14T06:47:04.718Z,5.26
2022-11-14T06:48:04.984Z,5.27
2022-11-14T06:49:05.223Z,5.27
2022-11-14T06:50:07.384Z,5.27
2022-11-14T06:51:04.713Z,5.30
2022-11-14T06:52:04.972Z,5.32
2022-11-14T06:53:04.191Z,5.33
2022-11-14T06:54:04.449Z,5.33
2022-11-14T06:55:04.713Z,5.33
2022-11-14T06:56:06.344Z,5.32
2022-11-14T06:57:04.249Z,5.32
2022-11-14T06:58:04.526Z,5.32
2022-11-14T06:59:04.843Z,5.33
2022-11-14T07:00:05.020Z,5.32
2022-11-14T07:01:04.229Z,5.35
2022-11-14T07:02:06.301Z,5.41
2022-11-14T07:03:04.830Z,5.41
2022-11-14T07:04:05.023Z,5.44
2022-11-14T07:05:04.287Z,5.47
2022-11-14T07:06:04.512Z,5.49
2022-11-14T07:07:04.811Z,5.49
2022-11-14T07:08:04.055Z,5.48
2022-11-14T07:09:04.373Z,5.51
2022-11-14T07:10:04.458Z,5.51
2022-11-14T07:11:04.710Z,5.51
2022-11-14T07:12:03.913Z,5.52
2022-11-14T07:13:04.190Z,5.49
2022-11-14T07:14:07.256Z,5.51
2022-11-14T07:15:04.703Z,5.49
2022-11-14T07:16:04.949Z,5.49
2022-11-14T07:17:05.110Z,5.47
2022-11-14T07:18:04.414Z,5.47
2022-11-14T07:19:06.388Z,5.47
2022-11-14T07:20:03.884Z,5.45
2022-11-14T07:21:04.127Z,5.45
2022-11-14T07:22:04.374Z,5.47
2022-11-14T07:23:04.634Z,5.45
2022-11-14T07:24:03.858Z,5.44
2022-11-14T07:25:04.148Z,5.44
2022-11-14T07:26:04.395Z,5.44
2022-11-14T07:27:04.634Z,5.44
2022-11-14T07:28:03.844Z,5.44
2022-11-14T07:29:04.143Z,5.45
2022-11-14T07:30:04.365Z,5.48
2022-11-14T07:31:07.323Z,5.47
2022-11-14T07:32:03.784Z,5.52
2022-11-14T07:33:05.079Z,5.55
2022-11-14T07:34:04.284Z,5.58
2022-11-14T07:35:04.709Z,5.56
2022-11-14T07:36:03.766Z,5.67
2022-11-14T07:37:04.943Z,5.60
2022-11-14T07:38:04.254Z,5.59
2022-11-14T07:39:04.496Z,5.59
2022-11-14T07:40:03.668Z,5.63
2022-11-14T07:41:03.864Z,5.67
2022-11-14T07:42:04.116Z,5.73
2022-11-14T07:43:04.355Z,5.74
2022-11-14T07:44:03.547Z,5.77
2022-11-14T07:45:03.819Z,5.77
2022-11-14T07:46:04.053Z,5.78
2022-11-14T07:47:04.333Z,5.78
2022-11-14T07:48:03.479Z,5.83
2022-11-14T07:49:03.695Z,5.85
2022-11-14T07:50:03.935Z,5.88
2022-11-14T07:51:04.168Z,5.85
2022-11-14T07:52:06.319Z,5.85
2022-11-14T07:53:03.614Z,5.92
2022-11-14T07:54:03.864Z,5.88
2022-11-14T07:55:04.119Z,5.87
2022-11-14T07:56:04.315Z,5.88
2022-11-14T07:57:03.529Z,5.90
2022-11-14T07:58:03.820Z,5.87
2022-11-14T07:59:07.853Z,5.84
2022-11-14T08:00:04.295Z,5.85
2022-11-14T08:01:04.626Z,5.84
2022-11-14T08:02:04.763Z,5.85
2022-11-14T08:03:07.535Z,5.85
2022-11-14T08:04:04.205Z,5.88
2022-11-14T08:05:03.435Z,5.88
2022-11-14T08:06:03.681Z,5.88
2022-11-14T08:07:03.935Z,5.90
2022-11-14T08:08:04.165Z,5.90
2022-11-14T08:09:06.313Z,5.92
2022-11-14T08:10:03.634Z,5.95
2022-11-14T08:11:03.897Z,5.96
2022-11-14T08:12:04.153Z,5.96
2022-11-14T08:14:04.605Z,5.98
2022-11-14T08:15:03.934Z,6.02
2022-11-14T08:16:10.745Z,6.01
2022-11-14T08:17:04.339Z,6.02
2022-11-14T08:18:03.555Z,6.02
2022-11-14T08:19:03.811Z,6.03
2022-11-14T08:20:03.048Z,6.03
2022-11-14T08:21:04.373Z,6.02
2022-11-14T08:22:03.545Z,6.06
2022-11-14T08:23:03.774Z,6.05
2022-11-14T08:24:05.032Z,6.06
2022-11-14T08:25:03.173Z,6.08
2022-11-14T08:26:03.414Z,6.05
2022-11-14T08:27:03.723Z,6.05
2022-11-14T08:28:03.893Z,6.10
2022-11-14T08:29:05.183Z,6.10
2022-11-14T08:30:04.362Z,6.08
2022-11-14T08:31:04.638Z,6.06
2022-11-14T08:32:06.866Z,6.08
2022-11-14T08:33:02.983Z,6.06
2022-11-14T08:34:06.378Z,6.06
2022-11-14T08:35:04.528Z,6.10
2022-11-14T08:36:03.720Z,6.10
2022-11-14T08:37:02.923Z,6.11
2022-11-14T08:38:04.258Z,6.13
2022-11-14T08:39:04.433Z,6.14
2022-11-14T08:40:04.603Z,6.11
2022-11-14T08:41:04.946Z,6.11
2022-11-14T08:42:05.139Z,6.13
2022-11-14T08:43:03.328Z,6.14
2022-11-14T08:44:03.704Z,6.13
2022-11-14T08:45:04.864Z,6.19
2022-11-14T08:46:04.043Z,6.14
2022-11-14T08:47:04.269Z,6.16
2022-11-14T08:48:03.463Z,6.14
2022-11-14T08:49:02.669Z,6.16
2022-11-14T08:50:02.953Z,6.13
2022-11-14T08:51:03.122Z,6.13
2022-11-14T08:52:03.338Z,6.11
2022-11-14T08:53:03.568Z,6.11
2022-11-14T08:54:04.823Z,6.05
2022-11-14T08:55:03.014Z,6.11
2022-11-14T08:56:03.284Z,6.13
2022-11-14T08:57:03.434Z,6.13
2022-11-14T08:58:03.704Z,6.13
2022-11-14T08:59:04.968Z,6.13
2022-11-14T09:00:03.134Z,6.16
2022-11-14T09:01:03.467Z,6.16
2022-11-14T09:02:03.598Z,6.19
2022-11-14T09:03:02.901Z,6.19
2022-11-14T09:04:03.305Z,6.20
2022-11-14T09:05:03.412Z,6.19
2022-11-14T09:06:02.499Z,6.20
2022-11-14T09:07:02.872Z,6.25
2022-11-14T09:08:03.013Z,6.25
2022-11-14T09:09:03.243Z,6.20
2022-11-14T09:10:03.464Z,6.24
2022-11-14T09:11:05.107Z,6.20
2022-11-14T09:12:02.953Z,6.21
2022-11-14T09:13:03.196Z,6.25
2022-11-14T09:14:03.435Z,6.24
2022-11-14T09:15:02.684Z,6.25
2022-11-14T09:16:02.941Z,6.24
2022-11-14T09:17:05.941Z,6.25
2022-11-14T09:18:06.818Z,6.28
2022-11-14T09:19:02.598Z,6.27
2022-11-14T09:20:02.836Z,6.27
2022-11-14T09:21:03.112Z,6.28
2022-11-14T09:22:03.331Z,6.30
2022-11-14T09:23:03.534Z,6.30
2022-11-14T09:24:02.815Z,6.33
2022-11-14T09:25:02.982Z,6.32
2022-11-14T09:26:02.178Z,6.32
2022-11-14T09:27:02.408Z,6.33
2022-11-14T09:28:02.629Z,6.33
2022-11-14T09:29:02.889Z,6.35
2022-11-14T09:30:03.073Z,6.35
2022-11-14T09:31:02.292Z,6.36
2022-11-14T09:32:03.473Z,6.36
2022-11-14T09:33:05.757Z,6.38
2022-11-14T09:34:04.223Z,6.38
2022-11-14T09:35:02.185Z,6.39
2022-11-14T09:36:03.411Z,6.36
2022-11-14T09:37:02.603Z,6.39
2022-11-14T09:38:04.004Z,6.39
2022-11-14T09:39:03.062Z,6.40
2022-11-14T09:40:06.439Z,6.39
2022-11-14T09:41:02.550Z,6.42
2022-11-14T09:42:03.779Z,6.45
2022-11-14T09:43:03.984Z,6.50
2022-11-14T09:44:02.148Z,6.53
2022-11-14T09:45:02.412Z,6.53
2022-11-14T09:46:02.706Z,6.58
2022-11-14T09:47:02.872Z,6.60
2022-11-14T09:48:02.028Z,6.61
2022-11-14T09:49:03.294Z,6.64
2022-11-14T09:50:02.522Z,6.63
2022-11-14T09:51:02.735Z,6.68
2022-11-14T09:52:02.964Z,6.69
2022-11-14T09:53:03.173Z,6.71
2022-11-14T09:54:02.374Z,6.71
2022-11-14T09:55:02.630Z,6.75
2022-11-14T09:56:01.773Z,6.78
2022-11-14T09:57:02.066Z,6.79
2022-11-14T09:58:02.214Z,6.78
2022-11-14T09:59:03.453Z,6.81
2022-11-14T10:00:03.688Z,6.79
2022-11-14T10:01:09.097Z,6.78
2022-11-14T10:02:03.164Z,6.81
2022-11-14T10:03:02.259Z,6.83
2022-11-14T10:04:04.865Z,6.86
2022-11-14T10:05:02.681Z,6.86
2022-11-14T10:06:02.978Z,6.82
2022-11-14T10:07:02.173Z,6.81
2022-11-14T10:08:02.388Z,6.83
2022-11-14T10:09:02.580Z,6.89
2022-11-14T10:10:04.884Z,6.91
2022-11-14T10:11:01.968Z,6.93
2022-11-14T10:12:02.214Z,6.96
2022-11-14T10:13:03.674Z,6.97
2022-11-14T10:14:02.654Z,6.99
2022-11-14T10:15:01.829Z,6.99
2022-11-14T10:16:02.061Z,7.01
2022-11-14T10:17:07.834Z,7.04
2022-11-14T10:18:03.484Z,7.04
2022-11-14T10:19:02.900Z,7.08
2022-11-14T10:20:01.874Z,7.11
2022-11-14T10:21:02.078Z,7.12
2022-11-14T10:22:02.309Z,7.12
2022-11-14T10:23:02.564Z,7.14
2022-11-14T10:24:02.754Z,7.15
2022-11-14T10:25:02.069Z,7.18
2022-11-14T10:26:02.170Z,7.23
2022-11-14T10:27:01.371Z,7.21
2022-11-14T10:28:05.187Z,7.21
2022-11-14T10:29:01.865Z,7.18
2022-11-14T10:30:02.070Z,7.23
2022-11-14T10:31:02.275Z,7.23
2022-11-14T10:32:02.503Z,7.21
2022-11-14T10:33:02.734Z,7.21
2022-11-14T10:34:01.933Z,7.21
2022-11-14T10:35:03.303Z,7.19
2022-11-14T10:36:03.413Z,7.18
2022-11-14T10:37:01.623Z,7.18
2022-11-14T10:38:01.800Z,7.16
2022-11-14T10:39:02.057Z,7.14
2022-11-14T10:40:02.273Z,7.11
2022-11-14T10:41:01.498Z,7.08
2022-11-14T10:42:06.275Z,7.11
2022-11-14T10:43:02.898Z,7.11
2022-11-14T10:44:02.131Z,7.11
2022-11-14T10:45:02.424Z,7.09
2022-11-14T10:46:01.544Z,7.09
2022-11-14T10:47:01.754Z,7.14
2022-11-14T10:48:01.968Z,7.14
2022-11-14T10:49:01.144Z,7.14
2022-11-14T10:50:01.319Z,7.04
2022-11-14T10:51:01.516Z,7.12
2022-11-14T10:52:01.759Z,7.14
2022-11-14T10:53:01.935Z,7.15
2022-11-14T10:54:01.115Z,7.16
2022-11-14T10:55:01.338Z,7.18
2022-11-14T10:56:05.462Z,7.19
2022-11-14T10:57:01.770Z,7.21
2022-11-14T10:58:01.979Z,7.18
2022-11-14T10:59:03.203Z,7.19
2022-11-14T11:00:03.399Z,7.23
2022-11-14T11:01:02.647Z,7.27
2022-11-14T11:02:01.744Z,7.30
2022-11-14T11:03:00.899Z,7.30
2022-11-14T11:04:02.232Z,7.32
2022-11-14T11:05:03.390Z,7.29
2022-11-14T11:06:02.354Z,7.30
2022-11-14T11:07:01.839Z,7.30
2022-11-14T11:08:28.145Z,7.33
2022-11-14T11:09:28.143Z,7.33
2022-11-14T11:10:01.385Z,7.32
2022-11-14T11:11:01.575Z,7.30
2022-11-14T11:12:01.848Z,7.32
2022-11-14T11:13:01.013Z,7.32
2022-11-14T11:14:02.255Z,7.30
2022-11-14T11:15:02.468Z,7.32
2022-11-14T11:16:01.659Z,7.32
2022-11-14T11:17:00.840Z,7.30
2022-11-14T11:18:03.129Z,7.33
2022-11-14T11:19:05.596Z,7.34
2022-11-14T11:20:07.338Z,7.32
2022-11-14T11:21:01.796Z,7.34
2022-11-14T11:22:01.955Z,7.36
2022-11-14T11:23:03.354Z,7.36
2022-11-14T11:24:03.459Z,7.36
2022-11-14T11:25:02.650Z,7.36
2022-11-14T11:26:01.008Z,7.36
2022-11-14T11:27:01.059Z,7.36
2022-11-14T11:28:02.228Z,7.37
2022-11-14T11:29:01.505Z,7.36
2022-11-14T11:30:00.679Z,7.37
2022-11-14T11:31:04.060Z,7.41
2022-11-14T11:32:02.215Z,7.44
2022-11-14T11:33:02.428Z,7.47
2022-11-14T11:34:01.645Z,7.50
2022-11-14T11:35:01.863Z,7.54
2022-11-14T11:36:01.044Z,7.55
2022-11-14T11:37:01.568Z,7.60
2022-11-14T11:38:00.415Z,7.66
2022-11-14T11:39:00.654Z,7.67
2022-11-14T11:40:01.829Z,7.74
2022-11-14T11:41:02.139Z,7.81
2022-11-14T11:42:10.287Z,7.85
2022-11-14T11:44:02.120Z,7.94
2022-11-14T11:45:00.972Z,7.95
2022-11-14T11:46:01.209Z,7.99
2022-11-14T11:47:01.422Z,7.95
2022-11-14T11:48:00.619Z,7.92
2022-11-14T11:49:00.848Z,7.95
2022-11-14T11:50:01.048Z,7.94
2022-11-14T11:51:01.260Z,7.94
2022-11-14T11:52:01.499Z,7.92
2022-11-14T11:53:00.660Z,7.94
2022-11-14T11:54:00.894Z,7.92
2022-11-14T11:55:02.099Z,7.94
2022-11-14T11:56:00.292Z,7.91
2022-11-14T11:57:00.510Z,7.91
2022-11-14T11:58:01.803Z,7.86
2022-11-14T11:59:00.974Z,7.86
2022-11-14T12:00:02.323Z,7.85
2022-11-14T12:01:00.393Z,7.85
2022-11-14T12:02:00.699Z,7.84
2022-11-14T12:03:00.989Z,7.79
2022-11-14T12:04:01.218Z,7.77
2022-11-14T12:05:01.269Z,7.76
2022-11-14T12:06:00.497Z,7.74
2022-11-14T12:07:00.751Z,7.79
2022-11-14T12:08:01.294Z,7.79
2022-11-14T12:09:00.121Z,7.82
2022-11-14T12:10:15.756Z,7.82
2022-11-14T12:11:01.553Z,7.79
2022-11-14T12:12:00.723Z,7.81
2022-11-14T12:13:00.949Z,7.84
2022-11-14T12:14:00.088Z,7.84
2022-11-14T12:15:00.339Z,7.84
2022-11-14T12:16:00.542Z,7.85
2022-11-14T12:17:00.853Z,7.86
2022-11-14T12:18:01.024Z,7.88
2022-11-14T12:19:00.199Z,7.86
2022-11-14T12:20:00.409Z,7.88
2022-11-14T12:21:00.618Z,7.86
2022-11-14T12:22:00.855Z,7.86
2022-11-14T12:23:00.019Z,7.86
2022-11-14T12:24:40.723Z,7.88
2022-11-14T12:25:00.466Z,7.89
2022-11-14T12:26:00.695Z,7.88
2022-11-14T12:26:59.878Z,7.89
2022-11-14T12:28:07.445Z,7.89
2022-11-14T12:29:00.333Z,7.88
2022-11-14T12:30:00.540Z,7.89
2022-11-14T12:31:01.824Z,7.92
2022-11-14T12:31:59.953Z,7.91
2022-11-14T12:33:00.176Z,7.92
2022-11-14T12:34:00.469Z,7.89
2022-11-14T12:35:00.677Z,7.91
2022-11-14T12:36:00.795Z,7.91
2022-11-14T12:37:00.176Z,7.89
2022-11-14T12:38:00.289Z,7.89
2022-11-14T12:39:01.860Z,7.89
2022-11-14T12:39:59.779Z,7.94
2022-11-14T12:41:03.088Z,7.94
2022-11-14T12:42:01.129Z,7.92
2022-11-14T12:43:00.418Z,7.92
2022-11-14T12:44:00.747Z,7.92
2022-11-14T12:44:59.893Z,7.92
2022-11-14T12:46:00.115Z,7.94
2022-11-14T12:47:00.285Z,7.92
2022-11-14T12:48:00.529Z,7.89
2022-11-14T12:48:59.739Z,7.91
2022-11-14T12:49:59.980Z,7.91
2022-11-14T12:51:00.224Z,7.88
2022-11-14T12:52:00.500Z,7.86
2022-11-14T12:52:59.638Z,7.89
2022-11-14T12:53:59.883Z,7.86
2022-11-14T12:55:02.359Z,7.84
2022-11-14T12:56:00.360Z,7.85
2022-11-14T12:57:01.612Z,7.84
2022-11-14T12:57:59.774Z,7.79
2022-11-14T12:58:59.973Z,7.77
2022-11-14T13:00:00.224Z,7.79
2022-11-14T13:00:59.562Z,7.77
2022-11-14T13:01:59.639Z,7.79
2022-11-14T13:02:59.875Z,7.79
2022-11-14T13:04:00.103Z,7.76
2022-11-14T13:05:00.324Z,7.77
2022-11-14T13:05:59.545Z,7.76
2022-11-14T13:07:03.052Z,7.74
2022-11-14T13:08:24.893Z,7.77
2022-11-14T13:09:00.229Z,7.74
2022-11-14T13:09:59.381Z,7.76
2022-11-14T13:10:59.619Z,7.76
2022-11-14T13:11:59.903Z,7.77
2022-11-14T13:13:00.043Z,7.81
2022-11-14T13:13:59.275Z,7.79
2022-11-14T13:14:59.458Z,7.81
2022-11-14T13:15:59.694Z,7.84
2022-11-14T13:16:59.927Z,7.84
2022-11-14T13:18:00.147Z,7.81
2022-11-14T13:18:59.304Z,7.79
2022-11-14T13:19:59.558Z,7.79